sensor_id;sensor_type;location;lat;lon;timestamp;P1;durP1;ratioP1;P2;durP2;ratioP2
29906;SDS011;16776;50.958;10.994;2023-10-31T00:00:28;1.83;;;1.70;;
29906;SDS011;16776;50.958;10.994;2023-10-31T00:02:54;1.58;;;1.40;;
29906;SDS011;16776;50.958;10.994;2023-10-31T00:05:21;2.00;;;1.40;;
29906;SDS011;16776;50.958;10.994;2023-10-31T00:07:47;1.58;;;1.48;;
29906;SDS011;16776;50.958;10.994;2023-10-31T00:10:14;2.17;;;1.52;;
29906;SDS011;16776;50.958;10.994;2023-10-31T00:12:41;2.33;;;1.83;;
29906;SDS011;16776;50.958;10.994;2023-10-31T00:15:07;2.47;;;2.28;;
29906;SDS011;16776;50.958;10.994;2023-10-31T00:17:35;3.13;;;1.77;;
29906;SDS011;16776;50.958;10.994;2023-10-31T00:20:02;1.58;;;1.20;;
29906;SDS011;16776;50.958;10.994;2023-10-31T00:22:30;2.38;;;1.90;;
29906;SDS011;16776;50.958;10.994;2023-10-31T00:24:56;2.08;;;1.60;;
29906;SDS011;16776;50.958;10.994;2023-10-31T00:27:23;1.90;;;1.80;;
29906;SDS011;16776;50.958;10.994;2023-10-31T00:29:49;1.67;;;1.58;;
29906;SDS011;16776;50.958;10.994;2023-10-31T00:32:16;2.17;;;1.80;;
29906;SDS011;16776;50.958;10.994;2023-10-31T00:34:44;2.05;;;1.85;;
29906;SDS011;16776;50.958;10.994;2023-10-31T00:37:10;1.45;;;1.35;;
29906;SDS011;16776;50.958;10.994;2023-10-31T00:39:37;1.52;;;1.42;;
29906;SDS011;16776;50.958;10.994;2023-10-31T00:42:03;1.80;;;1.63;;
29906;SDS011;16776;50.958;10.994;2023-10-31T00:44:30;1.75;;;1.40;;
29906;SDS011;16776;50.958;10.994;2023-10-31T00:46:57;2.45;;;1.52;;
29906;SDS011;16776;50.958;10.994;2023-10-31T00:49:23;1.70;;;1.60;;
29906;SDS011;16776;50.958;10.994;2023-10-31T00:51:51;1.40;;;1.30;;
29906;SDS011;16776;50.958;10.994;2023-10-31T00:54:18;1.42;;;1.30;;
29906;SDS011;16776;50.958;10.994;2023-10-31T00:56:44;2.22;;;1.13;;
29906;SDS011;16776;50.958;10.994;2023-10-31T00:59:10;2.85;;;1.25;;
29906;SDS011;16776;50.958;10.994;2023-10-31T01:21:49;1.15;;;1.05;;
29906;SDS011;16776;50.958;10.994;2023-10-31T01:24:15;1.05;;;0.82;;
29906;SDS011;16776;50.958;10.994;2023-10-31T01:26:42;1.08;;;1.00;;
29906;SDS011;16776;50.958;10.994;2023-10-31T01:29:08;1.35;;;1.20;;
29906;SDS011;16776;50.958;10.994;2023-10-31T01:31:35;1.30;;;1.20;;
29906;SDS011;16776;50.958;10.994;2023-10-31T01:34:02;1.25;;;1.02;;
29906;SDS011;16776;50.958;10.994;2023-10-31T01:36:29;1.48;;;1.20;;
29906;SDS011;16776;50.958;10.994;2023-10-31T01:38:56;1.40;;;1.30;;
29906;SDS011;16776;50.958;10.994;2023-10-31T01:41:24;0.90;;;0.90;;
29906;SDS011;16776;50.958;10.994;2023-10-31T01:43:50;1.08;;;0.90;;
29906;SDS011;16776;50.958;10.994;2023-10-31T01:46:17;1.15;;;0.90;;
29906;SDS011;16776;50.958;10.994;2023-10-31T01:48:43;0.88;;;0.65;;
29906;SDS011;16776;50.958;10.994;2023-10-31T01:51:10;0.82;;;0.80;;
29906;SDS011;16776;50.958;10.994;2023-10-31T01:53:37;0.95;;;0.80;;
29906;SDS011;16776;50.958;10.994;2023-10-31T01:56:06;1.40;;;0.90;;
29906;SDS011;16776;50.958;10.994;2023-10-31T01:58:34;0.60;;;0.50;;
29906;SDS011;16776;50.958;10.994;2023-10-31T02:01:01;0.95;;;0.95;;
29906;SDS011;16776;50.958;10.994;2023-10-31T02:03:28;0.60;;;0.60;;
29906;SDS011;16776;50.958;10.994;2023-10-31T02:05:55;0.95;;;0.88;;
29906;SDS011;16776;50.958;10.994;2023-10-31T02:08:23;1.75;;;0.77;;
29906;SDS011;16776;50.958;10.994;2023-10-31T02:10:50;0.73;;;0.73;;
29906;SDS011;16776;50.958;10.994;2023-10-31T02:13:18;0.82;;;0.60;;
29906;SDS011;16776;50.958;10.994;2023-10-31T02:15:45;0.60;;;0.60;;
29906;SDS011;16776;50.958;10.994;2023-10-31T02:18:12;0.77;;;0.50;;
29906;SDS011;16776;50.958;10.994;2023-10-31T02:20:38;0.75;;;0.60;;
29906;SDS011;16776;50.958;10.994;2023-10-31T02:23:07;1.23;;;1.05;;
29906;SDS011;16776;50.958;10.994;2023-10-31T02:25:33;0.50;;;0.50;;
29906;SDS011;16776;50.958;10.994;2023-10-31T02:28:00;0.55;;;0.43;;
29906;SDS011;16776;50.958;10.994;2023-10-31T02:30:27;0.55;;;0.55;;
29906;SDS011;16776;50.958;10.994;2023-10-31T02:32:54;0.38;;;0.38;;
29906;SDS011;16776;50.958;10.994;2023-10-31T02:35:20;0.95;;;0.52;;
29906;SDS011;16776;50.958;10.994;2023-10-31T02:37:47;0.50;;;0.50;;
29906;SDS011;16776;50.958;10.994;2023-10-31T02:40:15;0.63;;;0.45;;
29906;SDS011;16776;50.958;10.994;2023-10-31T02:42:42;0.90;;;0.68;;
29906;SDS011;16776;50.958;10.994;2023-10-31T02:45:09;0.98;;;0.80;;
29906;SDS011;16776;50.958;10.994;2023-10-31T02:47:36;0.75;;;0.50;;
29906;SDS011;16776;50.958;10.994;2023-10-31T02:50:02;0.52;;;0.52;;
29906;SDS011;16776;50.958;10.994;2023-10-31T02:52:29;0.95;;;0.45;;
29906;SDS011;16776;50.958;10.994;2023-10-31T02:54:56;0.73;;;0.50;;
29906;SDS011;16776;50.958;10.994;2023-10-31T02:57:24;0.50;;;0.50;;
29906;SDS011;16776;50.958;10.994;2023-10-31T02:59:51;0.57;;;0.57;;
29906;SDS011;16776;50.958;10.994;2023-10-31T03:02:17;1.45;;;0.60;;
29906;SDS011;16776;50.958;10.994;2023-10-31T03:04:44;0.30;;;0.30;;
29906;SDS011;16776;50.958;10.994;2023-10-31T03:07:10;0.20;;;0.20;;
29906;SDS011;16776;50.958;10.994;2023-10-31T03:09:37;0.10;;;0.10;;
29906;SDS011;16776;50.958;10.994;2023-10-31T03:12:04;0.10;;;0.10;;
29906;SDS011;16776;50.958;10.994;2023-10-31T03:14:32;0.22;;;0.10;;
29906;SDS011;16776;50.958;10.994;2023-10-31T03:16:58;0.45;;;0.10;;
29906;SDS011;16776;50.958;10.994;2023-10-31T03:19:25;0.60;;;0.20;;
29906;SDS011;16776;50.958;10.994;2023-10-31T03:21:51;0.10;;;0.10;;
29906;SDS011;16776;50.958;10.994;2023-10-31T03:24:18;1.23;;;0.30;;
29906;SDS011;16776;50.958;10.994;2023-10-31T03:26:45;0.05;;;0.03;;
29906;SDS011;16776;50.958;10.994;2023-10-31T03:29:11;0.05;;;0.05;;
29906;SDS011;16776;50.958;10.994;2023-10-31T03:31:39;0.10;;;0.10;;
29906;SDS011;16776;50.958;10.994;2023-10-31T03:34:06;0.10;;;0.10;;
29906;SDS011;16776;50.958;10.994;2023-10-31T03:36:33;0.60;;;0.10;;
29906;SDS011;16776;50.958;10.994;2023-10-31T03:39:00;0.10;;;0.10;;
29906;SDS011;16776;50.958;10.994;2023-10-31T03:41:27;0.10;;;0.10;;
29906;SDS011;16776;50.958;10.994;2023-10-31T03:43:53;0.10;;;0.10;;
29906;SDS011;16776;50.958;10.994;2023-10-31T03:46:20;0.20;;;0.20;;
29906;SDS011;16776;50.958;10.994;2023-10-31T03:48:48;0.10;;;0.10;;
29906;SDS011;16776;50.958;10.994;2023-10-31T03:51:13;0.17;;;0.17;;
29906;SDS011;16776;50.958;10.994;2023-10-31T03:53:42;0.43;;;0.13;;
29906;SDS011;16776;50.958;10.994;2023-10-31T03:56:09;0.10;;;0.10;;
29906;SDS011;16776;50.958;10.994;2023-10-31T03:58:35;0.10;;;0.10;;
29906;SDS011;16776;50.958;10.994;2023-10-31T04:01:02;0.20;;;0.20;;
29906;SDS011;16776;50.958;10.994;2023-10-31T04:03:29;0.10;;;0.10;;
29906;SDS011;16776;50.958;10.994;2023-10-31T04:05:57;0.15;;;0.15;;
29906;SDS011;16776;50.958;10.994;2023-10-31T04:08:23;0.10;;;0.10;;
29906;SDS011;16776;50.958;10.994;2023-10-31T04:10:50;0.32;;;0.10;;
29906;SDS011;16776;50.958;10.994;2023-10-31T04:13:16;0.08;;;0.08;;
29906;SDS011;16776;50.958;10.994;2023-10-31T04:15:43;0.08;;;0.08;;
29906;SDS011;16776;50.958;10.994;2023-10-31T04:18:10;0.10;;;0.10;;
29906;SDS011;16776;50.958;10.994;2023-10-31T04:20:36;0.30;;;0.10;;
29906;SDS011;16776;50.958;10.994;2023-10-31T04:23:04;0.10;;;0.10;;
29906;SDS011;16776;50.958;10.994;2023-10-31T04:25:30;0.30;;;0.10;;
29906;SDS011;16776;50.958;10.994;2023-10-31T04:27:57;0.10;;;0.10;;
29906;SDS011;16776;50.958;10.994;2023-10-31T04:30:24;0.10;;;0.10;;
29906;SDS011;16776;50.958;10.994;2023-10-31T04:32:51;0.20;;;0.20;;
29906;SDS011;16776;50.958;10.994;2023-10-31T04:35:18;0.00;;;0.00;;
29906;SDS011;16776;50.958;10.994;2023-10-31T04:37:44;0.15;;;0.10;;
29906;SDS011;16776;50.958;10.994;2023-10-31T04:40:12;0.10;;;0.10;;
29906;SDS011;16776;50.958;10.994;2023-10-31T04:42:39;0.00;;;0.00;;
29906;SDS011;16776;50.958;10.994;2023-10-31T04:45:06;0.10;;;0.10;;
29906;SDS011;16776;50.958;10.994;2023-10-31T04:47:34;0.20;;;0.20;;
29906;SDS011;16776;50.958;10.994;2023-10-31T04:50:00;1.25;;;0.20;;
29906;SDS011;16776;50.958;10.994;2023-10-31T04:52:27;0.10;;;0.10;;
29906;SDS011;16776;50.958;10.994;2023-10-31T04:54:53;0.10;;;0.10;;
29906;SDS011;16776;50.958;10.994;2023-10-31T04:57:22;0.10;;;0.10;;
29906;SDS011;16776;50.958;10.994;2023-10-31T04:59:48;0.00;;;0.00;;
29906;SDS011;16776;50.958;10.994;2023-10-31T05:02:15;0.20;;;0.20;;
29906;SDS011;16776;50.958;10.994;2023-10-31T05:04:41;0.17;;;0.17;;
29906;SDS011;16776;50.958;10.994;2023-10-31T05:07:08;0.00;;;0.00;;
29906;SDS011;16776;50.958;10.994;2023-10-31T05:09:36;0.52;;;0.52;;
29906;SDS011;16776;50.958;10.994;2023-10-31T05:12:03;0.10;;;0.10;;
29906;SDS011;16776;50.958;10.994;2023-10-31T05:14:31;0.10;;;0.10;;
29906;SDS011;16776;50.958;10.994;2023-10-31T05:16:58;0.03;;;0.03;;
29906;SDS011;16776;50.958;10.994;2023-10-31T05:19:24;0.20;;;0.20;;
29906;SDS011;16776;50.958;10.994;2023-10-31T05:21:51;1.35;;;0.10;;
29906;SDS011;16776;50.958;10.994;2023-10-31T05:24:18;1.02;;;0.13;;
29906;SDS011;16776;50.958;10.994;2023-10-31T05:26:45;0.00;;;0.00;;
29906;SDS011;16776;50.958;10.994;2023-10-31T05:29:12;0.10;;;0.10;;
29906;SDS011;16776;50.958;10.994;2023-10-31T05:31:40;0.10;;;0.10;;
29906;SDS011;16776;50.958;10.994;2023-10-31T05:34:08;0.03;;;0.03;;
29906;SDS011;16776;50.958;10.994;2023-10-31T05:36:34;0.10;;;0.05;;
29906;SDS011;16776;50.958;10.994;2023-10-31T05:39:01;0.08;;;0.08;;
29906;SDS011;16776;50.958;10.994;2023-10-31T05:41:27;0.17;;;0.10;;
29906;SDS011;16776;50.958;10.994;2023-10-31T05:43:54;0.10;;;0.10;;
29906;SDS011;16776;50.958;10.994;2023-10-31T05:46:21;0.00;;;0.00;;
29906;SDS011;16776;50.958;10.994;2023-10-31T05:48:48;0.10;;;0.10;;
29906;SDS011;16776;50.958;10.994;2023-10-31T05:51:17;0.00;;;0.00;;
29906;SDS011;16776;50.958;10.994;2023-10-31T05:53:44;0.10;;;0.00;;
29906;SDS011;16776;50.958;10.994;2023-10-31T05:56:12;0.10;;;0.10;;
29906;SDS011;16776;50.958;10.994;2023-10-31T05:58:39;0.50;;;0.10;;
29906;SDS011;16776;50.958;10.994;2023-10-31T06:01:07;0.00;;;0.00;;
29906;SDS011;16776;50.958;10.994;2023-10-31T06:03:34;0.15;;;0.15;;
29906;SDS011;16776;50.958;10.994;2023-10-31T06:06:02;0.10;;;0.10;;
29906;SDS011;16776;50.958;10.994;2023-10-31T06:08:29;0.05;;;0.05;;
29906;SDS011;16776;50.958;10.994;2023-10-31T06:10:56;0.03;;;0.03;;
29906;SDS011;16776;50.958;10.994;2023-10-31T06:13:23;0.15;;;0.15;;
29906;SDS011;16776;50.958;10.994;2023-10-31T06:15:50;0.35;;;0.10;;
29906;SDS011;16776;50.958;10.994;2023-10-31T06:18:17;0.10;;;0.10;;
29906;SDS011;16776;50.958;10.994;2023-10-31T06:20:44;0.30;;;0.10;;
29906;SDS011;16776;50.958;10.994;2023-10-31T06:23:12;0.75;;;0.20;;
29906;SDS011;16776;50.958;10.994;2023-10-31T06:25:39;1.08;;;0.00;;
29906;SDS011;16776;50.958;10.994;2023-10-31T06:28:05;0.10;;;0.10;;
29906;SDS011;16776;50.958;10.994;2023-10-31T06:30:32;0.10;;;0.10;;
29906;SDS011;16776;50.958;10.994;2023-10-31T06:32:58;0.08;;;0.08;;
29906;SDS011;16776;50.958;10.994;2023-10-31T06:35:25;0.10;;;0.08;;
29906;SDS011;16776;50.958;10.994;2023-10-31T06:37:54;0.00;;;0.00;;
29906;SDS011;16776;50.958;10.994;2023-10-31T06:40:23;0.03;;;0.03;;
29906;SDS011;16776;50.958;10.994;2023-10-31T06:42:50;0.10;;;0.10;;
29906;SDS011;16776;50.958;10.994;2023-10-31T06:45:16;0.25;;;0.20;;
29906;SDS011;16776;50.958;10.994;2023-10-31T06:47:43;0.00;;;0.00;;
29906;SDS011;16776;50.958;10.994;2023-10-31T06:50:09;0.22;;;0.10;;
29906;SDS011;16776;50.958;10.994;2023-10-31T06:52:36;0.45;;;0.10;;
29906;SDS011;16776;50.958;10.994;2023-10-31T06:55:03;0.13;;;0.10;;
29906;SDS011;16776;50.958;10.994;2023-10-31T06:57:31;0.22;;;0.10;;
29906;SDS011;16776;50.958;10.994;2023-10-31T06:59:58;0.10;;;0.10;;
29906;SDS011;16776;50.958;10.994;2023-10-31T07:02:24;1.00;;;0.10;;
29906;SDS011;16776;50.958;10.994;2023-10-31T07:04:51;0.20;;;0.17;;
29906;SDS011;16776;50.958;10.994;2023-10-31T07:07:18;0.15;;;0.15;;
29906;SDS011;16776;50.958;10.994;2023-10-31T07:09:44;0.22;;;0.10;;
29906;SDS011;16776;50.958;10.994;2023-10-31T07:12:11;0.10;;;0.00;;
29906;SDS011;16776;50.958;10.994;2023-10-31T07:14:39;0.00;;;0.00;;
29906;SDS011;16776;50.958;10.994;2023-10-31T07:17:06;0.32;;;0.10;;
29906;SDS011;16776;50.958;10.994;2023-10-31T07:19:32;0.10;;;0.10;;
29906;SDS011;16776;50.958;10.994;2023-10-31T07:21:59;0.10;;;0.10;;
29906;SDS011;16776;50.958;10.994;2023-10-31T07:24:25;0.43;;;0.20;;
29906;SDS011;16776;50.958;10.994;2023-10-31T07:26:53;0.47;;;0.10;;
29906;SDS011;16776;50.958;10.994;2023-10-31T07:29:19;0.05;;;0.00;;
29906;SDS011;16776;50.958;10.994;2023-10-31T07:31:47;0.08;;;0.08;;
29906;SDS011;16776;50.958;10.994;2023-10-31T07:34:14;0.20;;;0.10;;
29906;SDS011;16776;50.958;10.994;2023-10-31T07:36:41;0.10;;;0.10;;
29906;SDS011;16776;50.958;10.994;2023-10-31T07:39:07;0.00;;;0.00;;
29906;SDS011;16776;50.958;10.994;2023-10-31T07:41:34;0.00;;;0.00;;
29906;SDS011;16776;50.958;10.994;2023-10-31T07:44:00;0.08;;;0.08;;
29906;SDS011;16776;50.958;10.994;2023-10-31T07:46:27;0.13;;;0.10;;
29906;SDS011;16776;50.958;10.994;2023-10-31T07:48:55;0.32;;;0.15;;
29906;SDS011;16776;50.958;10.994;2023-10-31T07:51:22;0.40;;;0.10;;
29906;SDS011;16776;50.958;10.994;2023-10-31T07:53:48;0.38;;;0.10;;
29906;SDS011;16776;50.958;10.994;2023-10-31T07:56:15;1.17;;;0.10;;
29906;SDS011;16776;50.958;10.994;2023-10-31T07:58:42;0.00;;;0.00;;
29906;SDS011;16776;50.958;10.994;2023-10-31T08:01:09;0.88;;;0.10;;
29906;SDS011;16776;50.958;10.994;2023-10-31T08:03:36;0.00;;;0.00;;
29906;SDS011;16776;50.958;10.994;2023-10-31T08:06:05;0.65;;;0.00;;
29906;SDS011;16776;50.958;10.994;2023-10-31T08:08:33;0.00;;;0.00;;
29906;SDS011;16776;50.958;10.994;2023-10-31T08:11:00;0.08;;;0.08;;
29906;SDS011;16776;50.958;10.994;2023-10-31T08:13:27;0.15;;;0.15;;
29906;SDS011;16776;50.958;10.994;2023-10-31T08:15:53;0.20;;;0.10;;
29906;SDS011;16776;50.958;10.994;2023-10-31T08:18:21;0.00;;;0.00;;
29906;SDS011;16776;50.958;10.994;2023-10-31T08:20:49;0.38;;;0.10;;
29906;SDS011;16776;50.958;10.994;2023-10-31T08:23:17;2.55;;;0.13;;
29906;SDS011;16776;50.958;10.994;2023-10-31T08:25:44;0.03;;;0.03;;
29906;SDS011;16776;50.958;10.994;2023-10-31T08:28:11;0.00;;;0.00;;
29906;SDS011;16776;50.958;10.994;2023-10-31T08:30:38;0.00;;;0.00;;
29906;SDS011;16776;50.958;10.994;2023-10-31T08:33:05;0.00;;;0.00;;
29906;SDS011;16776;50.958;10.994;2023-10-31T08:35:31;0.20;;;0.10;;
29906;SDS011;16776;50.958;10.994;2023-10-31T08:37:58;0.00;;;0.00;;
29906;SDS011;16776;50.958;10.994;2023-10-31T08:40:26;0.08;;;0.08;;
29906;SDS011;16776;50.958;10.994;2023-10-31T08:42:53;0.00;;;0.00;;
29906;SDS011;16776;50.958;10.994;2023-10-31T08:45:20;0.30;;;0.10;;
29906;SDS011;16776;50.958;10.994;2023-10-31T08:47:46;0.15;;;0.10;;
29906;SDS011;16776;50.958;10.994;2023-10-31T08:50:13;0.22;;;0.10;;
29906;SDS011;16776;50.958;10.994;2023-10-31T08:52:40;0.10;;;0.10;;
29906;SDS011;16776;50.958;10.994;2023-10-31T08:55:06;0.00;;;0.00;;
29906;SDS011;16776;50.958;10.994;2023-10-31T08:57:34;0.05;;;0.05;;
29906;SDS011;16776;50.958;10.994;2023-10-31T09:00:01;0.10;;;0.10;;
29906;SDS011;16776;50.958;10.994;2023-10-31T09:02:30;0.10;;;0.10;;
29906;SDS011;16776;50.958;10.994;2023-10-31T09:04:56;0.10;;;0.10;;
29906;SDS011;16776;50.958;10.994;2023-10-31T09:07:23;0.00;;;0.00;;
29906;SDS011;16776;50.958;10.994;2023-10-31T09:09:49;0.77;;;0.10;;
29906;SDS011;16776;50.958;10.994;2023-10-31T09:12:16;0.10;;;0.10;;
29906;SDS011;16776;50.958;10.994;2023-10-31T09:14:44;0.00;;;0.00;;
29906;SDS011;16776;50.958;10.994;2023-10-31T09:17:11;0.05;;;0.05;;
29906;SDS011;16776;50.958;10.994;2023-10-31T09:19:38;0.10;;;0.10;;
29906;SDS011;16776;50.958;10.994;2023-10-31T09:22:04;0.35;;;0.08;;
29906;SDS011;16776;50.958;10.994;2023-10-31T09:24:31;0.08;;;0.08;;
29906;SDS011;16776;50.958;10.994;2023-10-31T09:26:57;1.20;;;0.15;;
29906;SDS011;16776;50.958;10.994;2023-10-31T09:29:24;0.10;;;0.03;;
29906;SDS011;16776;50.958;10.994;2023-10-31T09:31:52;0.20;;;0.20;;
29906;SDS011;16776;50.958;10.994;2023-10-31T09:34:18;0.10;;;0.10;;
29906;SDS011;16776;50.958;10.994;2023-10-31T09:36:45;0.57;;;0.10;;
29906;SDS011;16776;50.958;10.994;2023-10-31T09:39:11;0.08;;;0.08;;
29906;SDS011;16776;50.958;10.994;2023-10-31T09:41:38;0.47;;;0.10;;
29906;SDS011;16776;50.958;10.994;2023-10-31T09:44:05;0.10;;;0.10;;
29906;SDS011;16776;50.958;10.994;2023-10-31T09:46:32;0.10;;;0.10;;
29906;SDS011;16776;50.958;10.994;2023-10-31T09:49:01;0.00;;;0.00;;
29906;SDS011;16776;50.958;10.994;2023-10-31T09:51:28;0.10;;;0.10;;
29906;SDS011;16776;50.958;10.994;2023-10-31T09:53:55;0.30;;;0.22;;
29906;SDS011;16776;50.958;10.994;2023-10-31T09:56:23;0.10;;;0.10;;
29906;SDS011;16776;50.958;10.994;2023-10-31T09:58:51;0.17;;;0.05;;
29906;SDS011;16776;50.958;10.994;2023-10-31T10:01:18;0.05;;;0.05;;
29906;SDS011;16776;50.958;10.994;2023-10-31T10:03:45;0.10;;;0.10;;
29906;SDS011;16776;50.958;10.994;2023-10-31T10:06:13;0.00;;;0.00;;
29906;SDS011;16776;50.958;10.994;2023-10-31T10:08:40;0.32;;;0.15;;
29906;SDS011;16776;50.958;10.994;2023-10-31T10:11:07;0.00;;;0.00;;
29906;SDS011;16776;50.958;10.994;2023-10-31T10:13:35;0.03;;;0.03;;
29906;SDS011;16776;50.958;10.994;2023-10-31T10:16:01;0.10;;;0.08;;
29906;SDS011;16776;50.958;10.994;2023-10-31T10:18:29;0.00;;;0.00;;
29906;SDS011;16776;50.958;10.994;2023-10-31T10:20:57;0.20;;;0.20;;
29906;SDS011;16776;50.958;10.994;2023-10-31T10:23:26;0.03;;;0.00;;
29906;SDS011;16776;50.958;10.994;2023-10-31T10:25:54;0.00;;;0.00;;
29906;SDS011;16776;50.958;10.994;2023-10-31T10:28:22;0.43;;;0.10;;
29906;SDS011;16776;50.958;10.994;2023-10-31T10:30:50;0.10;;;0.10;;
29906;SDS011;16776;50.958;10.994;2023-10-31T10:33:17;0.13;;;0.13;;
29906;SDS011;16776;50.958;10.994;2023-10-31T10:35:44;0.10;;;0.10;;
29906;SDS011;16776;50.958;10.994;2023-10-31T10:38:11;0.15;;;0.15;;
29906;SDS011;16776;50.958;10.994;2023-10-31T10:40:41;0.10;;;0.10;;
29906;SDS011;16776;50.958;10.994;2023-10-31T10:43:10;0.10;;;0.10;;
29906;SDS011;16776;50.958;10.994;2023-10-31T10:45:41;0.10;;;0.10;;
29906;SDS011;16776;50.958;10.994;2023-10-31T10:48:09;0.20;;;0.10;;
29906;SDS011;16776;50.958;10.994;2023-10-31T10:50:37;0.13;;;0.13;;
29906;SDS011;16776;50.958;10.994;2023-10-31T10:53:10;0.10;;;0.10;;
29906;SDS011;16776;50.958;10.994;2023-10-31T10:55:45;0.32;;;0.10;;
29906;SDS011;16776;50.958;10.994;2023-10-31T10:58:19;0.10;;;0.10;;
29906;SDS011;16776;50.958;10.994;2023-10-31T11:00:52;0.10;;;0.10;;
29906;SDS011;16776;50.958;10.994;2023-10-31T11:03:21;1.13;;;0.30;;
29906;SDS011;16776;50.958;10.994;2023-10-31T11:05:50;0.10;;;0.10;;
29906;SDS011;16776;50.958;10.994;2023-10-31T11:08:17;0.20;;;0.20;;
29906;SDS011;16776;50.958;10.994;2023-10-31T11:10:47;0.10;;;0.10;;
29906;SDS011;16776;50.958;10.994;2023-10-31T11:13:15;0.85;;;0.28;;
29906;SDS011;16776;50.958;10.994;2023-10-31T11:15:41;0.20;;;0.20;;
29906;SDS011;16776;50.958;10.994;2023-10-31T11:18:09;0.20;;;0.10;;
29906;SDS011;16776;50.958;10.994;2023-10-31T11:20:37;0.30;;;0.13;;
29906;SDS011;16776;50.958;10.994;2023-10-31T11:23:05;0.20;;;0.20;;
29906;SDS011;16776;50.958;10.994;2023-10-31T11:25:32;0.40;;;0.15;;
29906;SDS011;16776;50.958;10.994;2023-10-31T11:28:12;0.20;;;0.10;;
29906;SDS011;16776;50.958;10.994;2023-10-31T11:30:40;0.30;;;0.20;;
29906;SDS011;16776;50.958;10.994;2023-10-31T11:33:10;0.32;;;0.22;;
29906;SDS011;16776;50.958;10.994;2023-10-31T11:35:38;0.20;;;0.20;;
29906;SDS011;16776;50.958;10.994;2023-10-31T11:38:06;1.10;;;0.28;;
29906;SDS011;16776;50.958;10.994;2023-10-31T11:40:33;0.68;;;0.10;;
29906;SDS011;16776;50.958;10.994;2023-10-31T11:43:02;0.47;;;0.20;;
29906;SDS011;16776;50.958;10.994;2023-10-31T11:45:33;0.40;;;0.30;;
29906;SDS011;16776;50.958;10.994;2023-10-31T11:48:01;0.20;;;0.20;;
29906;SDS011;16776;50.958;10.994;2023-10-31T11:50:29;0.20;;;0.20;;
29906;SDS011;16776;50.958;10.994;2023-10-31T11:53:03;0.25;;;0.25;;
29906;SDS011;16776;50.958;10.994;2023-10-31T11:55:31;0.20;;;0.20;;
29906;SDS011;16776;50.958;10.994;2023-10-31T11:58:11;0.30;;;0.20;;
29906;SDS011;16776;50.958;10.994;2023-10-31T12:00:43;0.20;;;0.20;;
29906;SDS011;16776;50.958;10.994;2023-10-31T12:03:10;0.10;;;0.10;;
29906;SDS011;16776;50.958;10.994;2023-10-31T12:05:37;0.68;;;0.30;;
29906;SDS011;16776;50.958;10.994;2023-10-31T12:08:04;0.20;;;0.20;;
29906;SDS011;16776;50.958;10.994;2023-10-31T12:10:31;0.30;;;0.20;;
29906;SDS011;16776;50.958;10.994;2023-10-31T12:12:57;0.30;;;0.30;;
29906;SDS011;16776;50.958;10.994;2023-10-31T12:15:24;0.20;;;0.20;;
29906;SDS011;16776;50.958;10.994;2023-10-31T12:17:54;0.20;;;0.20;;
29906;SDS011;16776;50.958;10.994;2023-10-31T12:20:24;0.20;;;0.20;;
29906;SDS011;16776;50.958;10.994;2023-10-31T12:23:00;0.17;;;0.17;;
29906;SDS011;16776;50.958;10.994;2023-10-31T12:25:28;0.93;;;0.20;;
29906;SDS011;16776;50.958;10.994;2023-10-31T12:27:54;0.17;;;0.17;;
29906;SDS011;16776;50.958;10.994;2023-10-31T12:30:21;0.15;;;0.10;;
29906;SDS011;16776;50.958;10.994;2023-10-31T12:32:54;0.20;;;0.20;;
29906;SDS011;16776;50.958;10.994;2023-10-31T12:35:22;0.20;;;0.20;;
29906;SDS011;16776;50.958;10.994;2023-10-31T12:37:50;0.55;;;0.30;;
29906;SDS011;16776;50.958;10.994;2023-10-31T12:40:17;0.55;;;0.30;;
29906;SDS011;16776;50.958;10.994;2023-10-31T12:42:45;0.30;;;0.30;;
29906;SDS011;16776;50.958;10.994;2023-10-31T12:45:14;0.10;;;0.10;;
29906;SDS011;16776;50.958;10.994;2023-10-31T12:47:42;0.20;;;0.20;;
29906;SDS011;16776;50.958;10.994;2023-10-31T12:50:12;0.55;;;0.10;;
29906;SDS011;16776;50.958;10.994;2023-10-31T12:52:46;0.10;;;0.10;;
29906;SDS011;16776;50.958;10.994;2023-10-31T12:55:13;1.00;;;0.25;;
29906;SDS011;16776;50.958;10.994;2023-10-31T12:57:40;0.30;;;0.30;;
29906;SDS011;16776;50.958;10.994;2023-10-31T13:00:07;0.82;;;0.20;;
29906;SDS011;16776;50.958;10.994;2023-10-31T13:02:37;0.20;;;0.20;;
29906;SDS011;16776;50.958;10.994;2023-10-31T13:05:07;0.30;;;0.30;;
29906;SDS011;16776;50.958;10.994;2023-10-31T13:07:37;0.20;;;0.20;;
29906;SDS011;16776;50.958;10.994;2023-10-31T13:10:03;1.45;;;0.20;;
29906;SDS011;16776;50.958;10.994;2023-10-31T13:12:30;0.30;;;0.20;;
29906;SDS011;16776;50.958;10.994;2023-10-31T13:14:58;0.22;;;0.22;;
29906;SDS011;16776;50.958;10.994;2023-10-31T13:17:26;0.10;;;0.10;;
29906;SDS011;16776;50.958;10.994;2023-10-31T13:19:52;1.35;;;0.30;;
29906;SDS011;16776;50.958;10.994;2023-10-31T13:22:20;0.52;;;0.20;;
29906;SDS011;16776;50.958;10.994;2023-10-31T13:24:47;0.20;;;0.20;;
29906;SDS011;16776;50.958;10.994;2023-10-31T13:27:14;0.15;;;0.15;;
29906;SDS011;16776;50.958;10.994;2023-10-31T13:29:41;1.23;;;0.10;;
29906;SDS011;16776;50.958;10.994;2023-10-31T13:32:08;1.63;;;0.45;;
29906;SDS011;16776;50.958;10.994;2023-10-31T13:34:35;0.17;;;0.17;;
29906;SDS011;16776;50.958;10.994;2023-10-31T13:37:01;0.30;;;0.30;;
29906;SDS011;16776;50.958;10.994;2023-10-31T13:39:30;0.40;;;0.40;;
29906;SDS011;16776;50.958;10.994;2023-10-31T13:41:56;0.30;;;0.20;;
29906;SDS011;16776;50.958;10.994;2023-10-31T13:44:26;0.20;;;0.20;;
29906;SDS011;16776;50.958;10.994;2023-10-31T13:46:52;0.47;;;0.40;;
29906;SDS011;16776;50.958;10.994;2023-10-31T13:49:19;0.40;;;0.30;;
29906;SDS011;16776;50.958;10.994;2023-10-31T13:51:46;0.52;;;0.38;;
29906;SDS011;16776;50.958;10.994;2023-10-31T13:54:13;0.40;;;0.22;;
29906;SDS011;16776;50.958;10.994;2023-10-31T13:56:40;0.60;;;0.30;;
29906;SDS011;16776;50.958;10.994;2023-10-31T13:59:07;0.68;;;0.25;;
29906;SDS011;16776;50.958;10.994;2023-10-31T14:01:34;0.75;;;0.30;;
29906;SDS011;16776;50.958;10.994;2023-10-31T14:04:00;0.20;;;0.20;;
29906;SDS011;16776;50.958;10.994;2023-10-31T14:06:27;0.30;;;0.30;;
29906;SDS011;16776;50.958;10.994;2023-10-31T14:08:57;0.30;;;0.30;;
29906;SDS011;16776;50.958;10.994;2023-10-31T14:11:24;0.30;;;0.30;;
29906;SDS011;16776;50.958;10.994;2023-10-31T14:13:52;1.35;;;0.38;;
29906;SDS011;16776;50.958;10.994;2023-10-31T14:16:18;0.43;;;0.30;;
29906;SDS011;16776;50.958;10.994;2023-10-31T14:18:45;0.30;;;0.30;;
29906;SDS011;16776;50.958;10.994;2023-10-31T14:21:12;0.30;;;0.20;;
29906;SDS011;16776;50.958;10.994;2023-10-31T14:23:39;0.30;;;0.30;;
29906;SDS011;16776;50.958;10.994;2023-10-31T14:26:05;0.50;;;0.50;;
29906;SDS011;16776;50.958;10.994;2023-10-31T14:28:32;0.35;;;0.30;;
29906;SDS011;16776;50.958;10.994;2023-10-31T14:31:04;0.82;;;0.20;;
29906;SDS011;16776;50.958;10.994;2023-10-31T14:33:30;1.58;;;0.80;;
29906;SDS011;16776;50.958;10.994;2023-10-31T14:35:57;1.13;;;0.52;;
29906;SDS011;16776;50.958;10.994;2023-10-31T14:38:24;0.35;;;0.32;;
29906;SDS011;16776;50.958;10.994;2023-10-31T14:40:50;0.30;;;0.30;;
29906;SDS011;16776;50.958;10.994;2023-10-31T14:43:17;0.30;;;0.30;;
29906;SDS011;16776;50.958;10.994;2023-10-31T14:45:44;0.73;;;0.40;;
29906;SDS011;16776;50.958;10.994;2023-10-31T14:48:11;0.38;;;0.38;;
29906;SDS011;16776;50.958;10.994;2023-10-31T14:50:37;0.30;;;0.30;;
29906;SDS011;16776;50.958;10.994;2023-10-31T14:53:04;0.57;;;0.40;;